sensor_id;sensor_type;location;lat;lon;timestamp;temperature;humidity
24035;DHT22;12242;50.952;4.678;2023-02-11T00:01:41;7.70;99.90
24035;DHT22;12242;50.952;4.678;2023-02-11T00:04:09;7.60;99.90
24035;DHT22;12242;50.952;4.678;2023-02-11T00:06:41;7.50;99.90
24035;DHT22;12242;50.952;4.678;2023-02-11T00:09:11;7.60;99.90
24035;DHT22;12242;50.952;4.678;2023-02-11T00:11:43;7.60;99.90
24035;DHT22;12242;50.952;4.678;2023-02-11T00:14:10;7.60;99.90
24035;DHT22;12242;50.952;4.678;2023-02-11T00:16:38;7.60;99.90
24035;DHT22;12242;50.952;4.678;2023-02-11T00:19:05;7.60;99.90
24035;DHT22;12242;50.952;4.678;2023-02-11T00:21:35;7.60;99.90
24035;DHT22;12242;50.952;4.678;2023-02-11T00:24:03;7.60;99.90
24035;DHT22;12242;50.952;4.678;2023-02-11T00:26:34;7.50;99.90
24035;DHT22;12242;50.952;4.678;2023-02-11T00:29:02;7.40;99.90
24035;DHT22;12242;50.952;4.678;2023-02-11T00:31:30;7.60;99.90
24035;DHT22;12242;50.952;4.678;2023-02-11T00:34:00;7.60;99.90
24035;DHT22;12242;50.952;4.678;2023-02-11T00:36:28;7.50;99.90
24035;DHT22;12242;50.952;4.678;2023-02-11T00:38:56;7.50;99.90
24035;DHT22;12242;50.952;4.678;2023-02-11T00:41:26;7.40;99.90
24035;DHT22;12242;50.952;4.678;2023-02-11T00:43:56;7.40;99.90
24035;DHT22;12242;50.952;4.678;2023-02-11T00:46:23;7.50;99.90
24035;DHT22;12242;50.952;4.678;2023-02-11T00:48:51;7.40;99.90
24035;DHT22;12242;50.952;4.678;2023-02-11T00:51:21;7.40;99.90
24035;DHT22;12242;50.952;4.678;2023-02-11T00:53:48;7.30;99.90
24035;DHT22;12242;50.952;4.678;2023-02-11T00:56:15;7.30;99.90
24035;DHT22;12242;50.952;4.678;2023-02-11T00:58:45;7.30;99.90
24035;DHT22;12242;50.952;4.678;2023-02-11T01:01:12;7.30;99.90
24035;DHT22;12242;50.952;4.678;2023-02-11T01:03:39;7.40;99.90
24035;DHT22;12242;50.952;4.678;2023-02-11T01:06:07;7.40;99.90
24035;DHT22;12242;50.952;4.678;2023-02-11T01:08:38;7.40;99.90
24035;DHT22;12242;50.952;4.678;2023-02-11T01:11:19;7.40;99.90
24035;DHT22;12242;50.952;4.678;2023-02-11T01:13:48;7.40;99.90
24035;DHT22;12242;50.952;4.678;2023-02-11T01:16:16;7.40;99.90
24035;DHT22;12242;50.952;4.678;2023-02-11T01:18:45;7.40;99.90
24035;DHT22;12242;50.952;4.678;2023-02-11T01:21:15;7.40;99.90
24035;DHT22;12242;50.952;4.678;2023-02-11T01:23:42;7.50;99.90
24035;DHT22;12242;50.952;4.678;2023-02-11T01:26:09;7.60;99.90
24035;DHT22;12242;50.952;4.678;2023-02-11T01:28:39;7.60;99.90
24035;DHT22;12242;50.952;4.678;2023-02-11T01:31:06;7.50;99.90
24035;DHT22;12242;50.952;4.678;2023-02-11T01:33:36;7.50;99.90
24035;DHT22;12242;50.952;4.678;2023-02-11T01:36:04;7.50;99.90
24035;DHT22;12242;50.952;4.678;2023-02-11T01:38:34;7.40;99.90
24035;DHT22;12242;50.952;4.678;2023-02-11T01:41:04;7.40;99.90
24035;DHT22;12242;50.952;4.678;2023-02-11T01:43:38;7.30;99.90
24035;DHT22;12242;50.952;4.678;2023-02-11T01:49:15;7.30;99.90
24035;DHT22;12242;50.952;4.678;2023-02-11T01:51:59;7.40;99.90
24035;DHT22;12242;50.952;4.678;2023-02-11T01:54:31;7.40;99.90
24035;DHT22;12242;50.952;4.678;2023-02-11T01:57:23;7.50;99.90
24035;DHT22;12242;50.952;4.678;2023-02-11T02:00:12;7.60;99.90
24035;DHT22;12242;50.952;4.678;2023-02-11T02:03:10;7.60;99.90
24035;DHT22;12242;50.952;4.678;2023-02-11T02:10:53;7.90;99.90
24035;DHT22;12242;50.952;4.678;2023-02-11T02:13:23;7.90;99.90
24035;DHT22;12242;50.952;4.678;2023-02-11T02:15:55;7.90;99.90
24035;DHT22;12242;50.952;4.678;2023-02-11T02:38:37;7.90;99.90
24035;DHT22;12242;50.952;4.678;2023-02-11T02:41:20;7.90;99.90
24035;DHT22;12242;50.952;4.678;2023-02-11T02:43:49;7.80;99.90
24035;DHT22;12242;50.952;4.678;2023-02-11T02:46:29;7.80;99.90
24035;DHT22;12242;50.952;4.678;2023-02-11T02:49:00;7.80;99.90
24035;DHT22;12242;50.952;4.678;2023-02-11T02:51:38;7.80;99.90
24035;DHT22;12242;50.952;4.678;2023-02-11T02:54:28;7.90;99.90
24035;DHT22;12242;50.952;4.678;2023-02-11T03:03:00;7.90;99.90
24035;DHT22;12242;50.952;4.678;2023-02-11T03:05:52;7.90;99.90
24035;DHT22;12242;50.952;4.678;2023-02-11T03:08:31;8.00;99.90
24035;DHT22;12242;50.952;4.678;2023-02-11T03:11:01;8.20;99.90
24035;DHT22;12242;50.952;4.678;2023-02-11T03:13:32;8.30;99.90
24035;DHT22;12242;50.952;4.678;2023-02-11T03:16:10;8.40;99.90
24035;DHT22;12242;50.952;4.678;2023-02-11T03:18:45;8.50;99.90
24035;DHT22;12242;50.952;4.678;2023-02-11T03:21:15;8.30;99.90
24035;DHT22;12242;50.952;4.678;2023-02-11T03:23:52;8.10;99.90
24035;DHT22;12242;50.952;4.678;2023-02-11T03:26:35;8.10;99.90
24035;DHT22;12242;50.952;4.678;2023-02-11T03:34:53;8.00;99.90
24035;DHT22;12242;50.952;4.678;2023-02-11T03:37:35;8.10;99.90
24035;DHT22;12242;50.952;4.678;2023-02-11T03:40:12;8.20;99.90
24035;DHT22;12242;50.952;4.678;2023-02-11T03:43:02;8.20;99.90
24035;DHT22;12242;50.952;4.678;2023-02-11T03:45:32;8.30;99.90
24035;DHT22;12242;50.952;4.678;2023-02-11T03:48:25;8.50;99.90
24035;DHT22;12242;50.952;4.678;2023-02-11T03:50:59;8.50;99.90
24035;DHT22;12242;50.952;4.678;2023-02-11T03:53:27;8.60;99.90
24035;DHT22;12242;50.952;4.678;2023-02-11T03:56:00;8.60;99.90
24035;DHT22;12242;50.952;4.678;2023-02-11T03:58:31;8.70;99.90
24035;DHT22;12242;50.952;4.678;2023-02-11T04:00:58;8.60;99.90
24035;DHT22;12242;50.952;4.678;2023-02-11T04:03:27;8.60;99.90
24035;DHT22;12242;50.952;4.678;2023-02-11T04:05:57;8.60;99.90
24035;DHT22;12242;50.952;4.678;2023-02-11T04:08:26;8.70;99.90
24035;DHT22;12242;50.952;4.678;2023-02-11T04:10:54;8.50;99.90
24035;DHT22;12242;50.952;4.678;2023-02-11T04:13:21;8.40;99.90
24035;DHT22;12242;50.952;4.678;2023-02-11T04:15:48;8.60;99.90
24035;DHT22;12242;50.952;4.678;2023-02-11T04:18:17;8.60;99.90
24035;DHT22;12242;50.952;4.678;2023-02-11T04:20:44;8.70;99.90
24035;DHT22;12242;50.952;4.678;2023-02-11T04:23:12;8.70;99.90
24035;DHT22;12242;50.952;4.678;2023-02-11T04:25:41;8.70;99.90
24035;DHT22;12242;50.952;4.678;2023-02-11T04:28:11;8.60;99.90
24035;DHT22;12242;50.952;4.678;2023-02-11T04:30:38;8.40;99.90
24035;DHT22;12242;50.952;4.678;2023-02-11T04:33:06;8.50;99.90
24035;DHT22;12242;50.952;4.678;2023-02-11T04:35:37;8.50;99.90
24035;DHT22;12242;50.952;4.678;2023-02-11T04:38:05;8.50;99.90
24035;DHT22;12242;50.952;4.678;2023-02-11T04:40:32;8.60;99.90
24035;DHT22;12242;50.952;4.678;2023-02-11T04:42:59;8.50;99.90
24035;DHT22;12242;50.952;4.678;2023-02-11T04:45:26;8.40;99.90
24035;DHT22;12242;50.952;4.678;2023-02-11T04:48:00;8.50;99.90
24035;DHT22;12242;50.952;4.678;2023-02-11T04:50:27;8.50;99.90
24035;DHT22;12242;50.952;4.678;2023-02-11T04:52:56;8.50;99.90
24035;DHT22;12242;50.952;4.678;2023-02-11T04:55:27;8.50;99.90
24035;DHT22;12242;50.952;4.678;2023-02-11T04:57:56;8.60;99.90
24035;DHT22;12242;50.952;4.678;2023-02-11T05:00:24;8.50;99.90
24035;DHT22;12242;50.952;4.678;2023-02-11T05:02:51;8.40;99.90
24035;DHT22;12242;50.952;4.678;2023-02-11T05:05:21;8.40;99.90
24035;DHT22;12242;50.952;4.678;2023-02-11T05:07:51;8.40;99.90
24035;DHT22;12242;50.952;4.678;2023-02-11T05:10:22;8.40;99.90
24035;DHT22;12242;50.952;4.678;2023-02-11T05:12:50;8.40;99.90
24035;DHT22;12242;50.952;4.678;2023-02-11T05:15:24;8.40;99.90
24035;DHT22;12242;50.952;4.678;2023-02-11T05:17:52;8.40;99.90
24035;DHT22;12242;50.952;4.678;2023-02-11T05:20:22;8.40;99.90
24035;DHT22;12242;50.952;4.678;2023-02-11T05:22:49;8.50;99.90
24035;DHT22;12242;50.952;4.678;2023-02-11T05:25:16;8.50;99.90
24035;DHT22;12242;50.952;4.678;2023-02-11T05:27:46;8.40;99.90
24035;DHT22;12242;50.952;4.678;2023-02-11T05:30:15;8.40;99.90
24035;DHT22;12242;50.952;4.678;2023-02-11T05:32:43;8.40;99.90
24035;DHT22;12242;50.952;4.678;2023-02-11T05:35:15;8.40;99.90
24035;DHT22;12242;50.952;4.678;2023-02-11T05:37:42;8.40;99.90
24035;DHT22;12242;50.952;4.678;2023-02-11T05:40:10;8.40;99.90
24035;DHT22;12242;50.952;4.678;2023-02-11T05:42:40;8.30;99.90
24035;DHT22;12242;50.952;4.678;2023-02-11T05:45:08;8.40;99.90
24035;DHT22;12242;50.952;4.678;2023-02-11T05:47:35;8.40;99.90
24035;DHT22;12242;50.952;4.678;2023-02-11T05:50:05;8.60;99.90
24035;DHT22;12242;50.952;4.678;2023-02-11T05:52:32;8.50;99.90
24035;DHT22;12242;50.952;4.678;2023-02-11T05:55:03;8.60;99.90
24035;DHT22;12242;50.952;4.678;2023-02-11T05:57:30;8.60;99.90
24035;DHT22;12242;50.952;4.678;2023-02-11T06:00:00;8.60;99.90
24035;DHT22;12242;50.952;4.678;2023-02-11T06:02:27;8.60;99.90
24035;DHT22;12242;50.952;4.678;2023-02-11T06:04:55;8.50;99.90
24035;DHT22;12242;50.952;4.678;2023-02-11T06:07:22;8.70;99.90
24035;DHT22;12242;50.952;4.678;2023-02-11T06:09:49;8.80;99.90
24035;DHT22;12242;50.952;4.678;2023-02-11T06:12:21;8.80;99.90
24035;DHT22;12242;50.952;4.678;2023-02-11T06:14:51;8.80;99.90
24035;DHT22;12242;50.952;4.678;2023-02-11T06:17:21;8.70;99.90
24035;DHT22;12242;50.952;4.678;2023-02-11T06:19:49;8.70;99.90
24035;DHT22;12242;50.952;4.678;2023-02-11T06:22:19;8.70;99.90
24035;DHT22;12242;50.952;4.678;2023-02-11T06:24:46;8.80;99.90
24035;DHT22;12242;50.952;4.678;2023-02-11T06:27:30;8.90;99.90
24035;DHT22;12242;50.952;4.678;2023-02-11T06:29:59;8.80;99.90
24035;DHT22;12242;50.952;4.678;2023-02-11T06:32:27;8.80;99.90
24035;DHT22;12242;50.952;4.678;2023-02-11T06:35:10;8.70;99.90
24035;DHT22;12242;50.952;4.678;2023-02-11T06:37:43;8.90;99.90
24035;DHT22;12242;50.952;4.678;2023-02-11T06:40:11;8.80;99.90
24035;DHT22;12242;50.952;4.678;2023-02-11T06:42:39;8.80;99.90
24035;DHT22;12242;50.952;4.678;2023-02-11T06:45:07;8.80;99.90
24035;DHT22;12242;50.952;4.678;2023-02-11T06:47:37;8.80;99.90
24035;DHT22;12242;50.952;4.678;2023-02-11T06:50:09;8.80;99.90
24035;DHT22;12242;50.952;4.678;2023-02-11T06:52:37;8.90;99.90
24035;DHT22;12242;50.952;4.678;2023-02-11T06:55:04;8.90;99.90
24035;DHT22;12242;50.952;4.678;2023-02-11T06:57:32;8.90;99.90
24035;DHT22;12242;50.952;4.678;2023-02-11T06:59:59;9.00;99.90
24035;DHT22;12242;50.952;4.678;2023-02-11T07:02:29;8.90;99.90
24035;DHT22;12242;50.952;4.678;2023-02-11T07:04:56;9.00;99.90
24035;DHT22;12242;50.952;4.678;2023-02-11T07:07:23;9.00;99.90
24035;DHT22;12242;50.952;4.678;2023-02-11T07:09:50;8.90;99.90
24035;DHT22;12242;50.952;4.678;2023-02-11T07:12:18;8.80;99.90
24035;DHT22;12242;50.952;4.678;2023-02-11T07:14:48;8.80;99.90
24035;DHT22;12242;50.952;4.678;2023-02-11T07:17:15;8.70;99.90
24035;DHT22;12242;50.952;4.678;2023-02-11T07:19:45;8.70;99.90
24035;DHT22;12242;50.952;4.678;2023-02-11T07:22:14;8.80;99.90
24035;DHT22;12242;50.952;4.678;2023-02-11T07:24:42;8.80;99.90
24035;DHT22;12242;50.952;4.678;2023-02-11T07:27:09;8.70;99.90
24035;DHT22;12242;50.952;4.678;2023-02-11T07:29:40;8.70;99.90
24035;DHT22;12242;50.952;4.678;2023-02-11T07:32:10;8.80;99.90
24035;DHT22;12242;50.952;4.678;2023-02-11T07:34:39;8.80;99.90
24035;DHT22;12242;50.952;4.678;2023-02-11T07:37:09;8.80;99.90
24035;DHT22;12242;50.952;4.678;2023-02-11T07:39:36;8.90;99.90
24035;DHT22;12242;50.952;4.678;2023-02-11T07:42:04;8.90;99.90
24035;DHT22;12242;50.952;4.678;2023-02-11T07:44:31;8.90;99.90
24035;DHT22;12242;50.952;4.678;2023-02-11T07:46:59;9.10;99.90
24035;DHT22;12242;50.952;4.678;2023-02-11T07:49:26;9.10;99.90
24035;DHT22;12242;50.952;4.678;2023-02-11T07:51:54;9.10;99.90
24035;DHT22;12242;50.952;4.678;2023-02-11T07:54:21;9.20;99.90
24035;DHT22;12242;50.952;4.678;2023-02-11T07:56:51;9.20;99.90
24035;DHT22;12242;50.952;4.678;2023-02-11T07:59:22;9.30;99.90
24035;DHT22;12242;50.952;4.678;2023-02-11T08:01:50;9.40;99.90
24035;DHT22;12242;50.952;4.678;2023-02-11T08:04:18;9.40;99.90
24035;DHT22;12242;50.952;4.678;2023-02-11T08:06:45;9.40;99.90
24035;DHT22;12242;50.952;4.678;2023-02-11T08:09:15;9.50;99.90
24035;DHT22;12242;50.952;4.678;2023-02-11T08:11:45;9.40;99.90
24035;DHT22;12242;50.952;4.678;2023-02-11T08:14:15;9.50;99.90
24035;DHT22;12242;50.952;4.678;2023-02-11T08:16:44;9.50;99.90
24035;DHT22;12242;50.952;4.678;2023-02-11T08:19:14;9.60;99.90
24035;DHT22;12242;50.952;4.678;2023-02-11T08:21:44;9.50;99.90
24035;DHT22;12242;50.952;4.678;2023-02-11T08:24:14;9.50;99.90
24035;DHT22;12242;50.952;4.678;2023-02-11T08:26:44;9.60;99.90
24035;DHT22;12242;50.952;4.678;2023-02-11T08:29:16;9.60;99.90
24035;DHT22;12242;50.952;4.678;2023-02-11T08:31:45;9.60;99.90
24035;DHT22;12242;50.952;4.678;2023-02-11T08:34:14;9.70;99.90
24035;DHT22;12242;50.952;4.678;2023-02-11T08:36:47;9.60;99.90
24035;DHT22;12242;50.952;4.678;2023-02-11T08:39:17;9.50;99.90
24035;DHT22;12242;50.952;4.678;2023-02-11T08:41:51;9.50;99.90
24035;DHT22;12242;50.952;4.678;2023-02-11T08:44:22;9.60;99.90
24035;DHT22;12242;50.952;4.678;2023-02-11T08:46:50;9.70;99.90
24035;DHT22;12242;50.952;4.678;2023-02-11T08:49:18;9.70;99.90
24035;DHT22;12242;50.952;4.678;2023-02-11T08:51:46;9.80;99.90
24035;DHT22;12242;50.952;4.678;2023-02-11T08:54:14;9.80;99.90
24035;DHT22;12242;50.952;4.678;2023-02-11T08:56:49;9.90;99.90
24035;DHT22;12242;50.952;4.678;2023-02-11T08:59:18;10.00;99.90
24035;DHT22;12242;50.952;4.678;2023-02-11T09:01:48;10.00;99.90
24035;DHT22;12242;50.952;4.678;2023-02-11T09:04:16;10.00;99.90
24035;DHT22;12242;50.952;4.678;2023-02-11T09:06:43;10.00;99.90
24035;DHT22;12242;50.952;4.678;2023-02-11T09:09:14;10.10;99.90
24035;DHT22;12242;50.952;4.678;2023-02-11T09:11:43;10.00;99.90
24035;DHT22;12242;50.952;4.678;2023-02-11T09:14:20;9.90;99.90
24035;DHT22;12242;50.952;4.678;2023-02-11T09:16:49;9.80;99.90
24035;DHT22;12242;50.952;4.678;2023-02-11T09:19:17;9.70;99.90
24035;DHT22;12242;50.952;4.678;2023-02-11T09:21:47;9.70;99.90
24035;DHT22;12242;50.952;4.678;2023-02-11T09:24:15;9.70;99.90
24035;DHT22;12242;50.952;4.678;2023-02-11T09:26:48;9.70;99.90
24035;DHT22;12242;50.952;4.678;2023-02-11T09:29:17;9.80;99.90
24035;DHT22;12242;50.952;4.678;2023-02-11T09:31:49;9.70;99.90
24035;DHT22;12242;50.952;4.678;2023-02-11T09:34:16;9.80;99.90
24035;DHT22;12242;50.952;4.678;2023-02-11T09:36:46;9.80;99.90
24035;DHT22;12242;50.952;4.678;2023-02-11T09:39:16;9.80;99.90
24035;DHT22;12242;50.952;4.678;2023-02-11T09:44:23;9.90;99.90
24035;DHT22;12242;50.952;4.678;2023-02-11T09:47:23;9.90;99.90
24035;DHT22;12242;50.952;4.678;2023-02-11T09:50:00;10.10;99.90
24035;DHT22;12242;50.952;4.678;2023-02-11T09:53:10;10.20;99.90
24035;DHT22;12242;50.952;4.678;2023-02-11T09:55:42;10.20;99.90
24035;DHT22;12242;50.952;4.678;2023-02-11T09:58:16;10.20;99.90
24035;DHT22;12242;50.952;4.678;2023-02-11T10:00:51;9.90;99.90
24035;DHT22;12242;50.952;4.678;2023-02-11T10:03:48;10.10;99.90
24035;DHT22;12242;50.952;4.678;2023-02-11T10:06:29;10.30;99.90
24035;DHT22;12242;50.952;4.678;2023-02-11T10:09:23;10.30;99.90
24035;DHT22;12242;50.952;4.678;2023-02-11T10:15:20;10.30;99.90
24035;DHT22;12242;50.952;4.678;2023-02-11T10:21:16;10.30;99.90
24035;DHT22;12242;50.952;4.678;2023-02-11T10:23:51;10.20;99.90
24035;DHT22;12242;50.952;4.678;2023-02-11T10:26:20;10.30;99.90
24035;DHT22;12242;50.952;4.678;2023-02-11T10:28:51;10.30;99.90
24035;DHT22;12242;50.952;4.678;2023-02-11T10:31:23;10.50;99.90
24035;DHT22;12242;50.952;4.678;2023-02-11T10:34:04;10.50;99.90
24035;DHT22;12242;50.952;4.678;2023-02-11T10:36:37;10.60;99.90
24035;DHT22;12242;50.952;4.678;2023-02-11T10:41:51;10.60;99.90
24035;DHT22;12242;50.952;4.678;2023-02-11T10:44:56;10.40;99.90
24035;DHT22;12242;50.952;4.678;2023-02-11T10:47:24;10.50;99.90
24035;DHT22;12242;50.952;4.678;2023-02-11T10:49:53;10.60;99.90
24035;DHT22;12242;50.952;4.678;2023-02-11T10:52:25;10.60;99.90
24035;DHT22;12242;50.952;4.678;2023-02-11T10:57:32;10.60;99.90
24035;DHT22;12242;50.952;4.678;2023-02-11T11:00:26;10.60;99.90
24035;DHT22;12242;50.952;4.678;2023-02-11T11:03:00;10.70;99.90
24035;DHT22;12242;50.952;4.678;2023-02-11T11:05:58;10.90;99.90
24035;DHT22;12242;50.952;4.678;2023-02-11T11:08:49;10.80;99.90
24035;DHT22;12242;50.952;4.678;2023-02-11T11:11:22;10.80;99.90
24035;DHT22;12242;50.952;4.678;2023-02-11T11:16:31;10.80;99.90
24035;DHT22;12242;50.952;4.678;2023-02-11T11:21:43;10.70;99.90
24035;DHT22;12242;50.952;4.678;2023-02-11T11:24:27;10.60;99.90
24035;DHT22;12242;50.952;4.678;2023-02-11T11:27:02;10.60;99.90
24035;DHT22;12242;50.952;4.678;2023-02-11T11:29:35;10.70;99.90
24035;DHT22;12242;50.952;4.678;2023-02-11T11:32:27;10.70;99.90
24035;DHT22;12242;50.952;4.678;2023-02-11T11:35:00;10.60;99.90
24035;DHT22;12242;50.952;4.678;2023-02-11T11:37:34;10.70;99.90
24035;DHT22;12242;50.952;4.678;2023-02-11T11:42:31;10.60;99.90
24035;DHT22;12242;50.952;4.678;2023-02-11T11:45:17;10.70;99.90
24035;DHT22;12242;50.952;4.678;2023-02-11T11:48:21;10.90;99.90
24035;DHT22;12242;50.952;4.678;2023-02-11T11:50:58;10.90;99.90
24035;DHT22;12242;50.952;4.678;2023-02-11T11:56:05;10.70;99.90
24035;DHT22;12242;50.952;4.678;2023-02-11T11:58:35;10.70;99.90
24035;DHT22;12242;50.952;4.678;2023-02-11T12:12:56;11.40;99.90
24035;DHT22;12242;50.952;4.678;2023-02-11T12:18:26;11.40;99.90
24035;DHT22;12242;50.952;4.678;2023-02-11T12:22:10;11.40;99.90
24035;DHT22;12242;50.952;4.678;2023-02-11T12:27:22;11.30;99.90
24035;DHT22;12242;50.952;4.678;2023-02-11T12:33:39;11.40;99.90
24035;DHT22;12242;50.952;4.678;2023-02-11T12:58:57;11.40;99.90
24035;DHT22;12242;50.952;4.678;2023-02-11T13:01:29;11.50;99.90
24035;DHT22;12242;50.952;4.678;2023-02-11T13:04:14;11.60;99.90
24035;DHT22;12242;50.952;4.678;2023-02-11T13:06:51;11.70;99.90
24035;DHT22;12242;50.952;4.678;2023-02-11T13:09:29;11.70;99.90
24035;DHT22;12242;50.952;4.678;2023-02-11T13:12:02;11.50;99.90
24035;DHT22;12242;50.952;4.678;2023-02-11T13:14:58;11.60;99.90
24035;DHT22;12242;50.952;4.678;2023-02-11T13:17:35;11.70;99.90
24035;DHT22;12242;50.952;4.678;2023-02-11T13:20:26;11.80;99.90
24035;DHT22;12242;50.952;4.678;2023-02-11T13:23:06;11.50;99.90
24035;DHT22;12242;50.952;4.678;2023-02-11T13:30:46;11.70;99.90
24035;DHT22;12242;50.952;4.678;2023-02-11T13:33:38;11.70;99.90
24035;DHT22;12242;50.952;4.678;2023-02-11T13:36:09;11.60;99.90
24035;DHT22;12242;50.952;4.678;2023-02-11T13:38:38;11.70;99.90
24035;DHT22;12242;50.952;4.678;2023-02-11T13:41:28;11.70;99.90
24035;DHT22;12242;50.952;4.678;2023-02-11T13:44:23;11.80;99.90
24035;DHT22;12242;50.952;4.678;2023-02-11T13:46:53;11.70;99.90
24035;DHT22;12242;50.952;4.678;2023-02-11T13:49:41;11.80;99.90
24035;DHT22;12242;50.952;4.678;2023-02-11T13:55:22;11.70;99.90
24035;DHT22;12242;50.952;4.678;2023-02-11T14:19:37;11.60;99.90
24035;DHT22;12242;50.952;4.678;2023-02-11T14:22:18;11.60;99.90
24035;DHT22;12242;50.952;4.678;2023-02-11T14:25:02;11.60;99.90
24035;DHT22;12242;50.952;4.678;2023-02-11T14:27:34;11.50;99.90
24035;DHT22;12242;50.952;4.678;2023-02-11T14:41:29;11.60;99.90
24035;DHT22;12242;50.952;4.678;2023-02-11T14:44:00;11.50;99.90
24035;DHT22;12242;50.952;4.678;2023-02-11T14:46:31;11.60;99.90
24035;DHT22;12242;50.952;4.678;2023-02-11T14:49:00;11.70;99.90
24035;DHT22;12242;50.952;4.678;2023-02-11T14:51:38;11.80;99.90
24035;DHT22;12242;50.952;4.678;2023-02-11T14:54:18;11.90;99.90
24035;DHT22;12242;50.952;4.678;2023-02-11T14:57:14;11.80;99.90
24035;DHT22;12242;50.952;4.678;2023-02-11T15:00:03;11.90;99.90
24035;DHT22;12242;50.952;4.678;2023-02-11T15:02:36;11.90;99.90
24035;DHT22;12242;50.952;4.678;2023-02-11T15:07:54;11.70;99.90
24035;DHT22;12242;50.952;4.678;2023-02-11T15:10:33;11.70;99.90
24035;DHT22;12242;50.952;4.678;2023-02-11T15:13:02;11.70;99.90
24035;DHT22;12242;50.952;4.678;2023-02-11T15:15:31;11.90;99.90
24035;DHT22;12242;50.952;4.678;2023-02-11T15:18:06;12.00;99.90
24035;DHT22;12242;50.952;4.678;2023-02-11T15:20:40;12.10;99.90
24035;DHT22;12242;50.952;4.678;2023-02-11T15:23:12;12.10;99.90
24035;DHT22;12242;50.952;4.678;2023-02-11T15:25:48;12.20;99.90
24035;DHT22;12242;50.952;4.678;2023-02-11T15:28:30;12.10;99.90
24035;DHT22;12242;50.952;4.678;2023-02-11T15:31:13;12.20;99.90
24035;DHT22;12242;50.952;4.678;2023-02-11T15:33:41;12.10;99.90
24035;DHT22;12242;50.952;4.678;2023-02-11T15:36:16;12.20;99.90
24035;DHT22;12242;50.952;4.678;2023-02-11T15:38:43;12.20;99.90
24035;DHT22;12242;50.952;4.678;2023-02-11T15:41:36;12.20;99.90
24035;DHT22;12242;50.952;4.678;2023-02-11T15:44:03;12.00;99.90
24035;DHT22;12242;50.952;4.678;2023-02-11T15:46:38;12.20;99.90
24035;DHT22;12242;50.952;4.678;2023-02-11T15:49:12;12.20;99.90
24035;DHT22;12242;50.952;4.678;2023-02-11T15:51:47;12.30;99.90
24035;DHT22;12242;50.952;4.678;2023-02-11T15:54:21;12.30;99.90
24035;DHT22;12242;50.952;4.678;2023-02-11T15:56:53;12.20;99.90
24035;DHT22;12242;50.952;4.678;2023-02-11T15:59:28;12.20;99.90
24035;DHT22;12242;50.952;4.678;2023-02-11T16:02:12;12.20;99.90
24035;DHT22;12242;50.952;4.678;2023-02-11T16:04:53;12.20;99.90
24035;DHT22;12242;50.952;4.678;2023-02-11T16:07:46;12.20;99.90
24035;DHT22;12242;50.952;4.678;2023-02-11T16:18:01;12.10;99.90
24035;DHT22;12242;50.952;4.678;2023-02-11T16:20:31;12.10;99.90
24035;DHT22;12242;50.952;4.678;2023-02-11T16:23:00;12.10;99.90
24035;DHT22;12242;50.952;4.678;2023-02-11T16:25:33;12.10;99.90
24035;DHT22;12242;50.952;4.678;2023-02-11T16:28:03;12.10;99.90
24035;DHT22;12242;50.952;4.678;2023-02-11T16:30:33;12.10;99.90
24035;DHT22;12242;50.952;4.678;2023-02-11T16:33:01;12.10;99.90
24035;DHT22;12242;50.952;4.678;2023-02-11T16:35:31;12.10;99.90
24035;DHT22;12242;50.952;4.678;2023-02-11T16:37:59;11.90;99.90
24035;DHT22;12242;50.952;4.678;2023-02-11T16:40:29;12.00;99.90
24035;DHT22;12242;50.952;4.678;2023-02-11T16:42:58;12.00;99.90
24035;DHT22;12242;50.952;4.678;2023-02-11T16:45:26;11.80;99.90
24035;DHT22;12242;50.952;4.678;2023-02-11T16:47:55;11.70;99.90
24035;DHT22;12242;50.952;4.678;2023-02-11T16:50:24;11.80;99.90
24035;DHT22;12242;50.952;4.678;2023-02-11T16:52:53;11.80;99.90
24035;DHT22;12242;50.952;4.678;2023-02-11T16:55:21;11.80;99.90
24035;DHT22;12242;50.952;4.678;2023-02-11T16:57:51;11.60;99.90
24035;DHT22;12242;50.952;4.678;2023-02-11T17:00:21;11.70;99.90
24035;DHT22;12242;50.952;4.678;2023-02-11T17:02:49;11.70;99.90
24035;DHT22;12242;50.952;4.678;2023-02-11T17:05:19;11.70;99.90
24035;DHT22;12242;50.952;4.678;2023-02-11T17:07:51;11.70;99.90
24035;DHT22;12242;50.952;4.678;2023-02-11T17:10:24;11.70;99.90
24035;DHT22;12242;50.952;4.678;2023-02-11T17:12:52;11.80;99.90
24035;DHT22;12242;50.952;4.678;2023-02-11T17:15:21;11.70;99.90
24035;DHT22;12242;50.952;4.678;2023-02-11T17:17:51;11.80;99.90
24035;DHT22;12242;50.952;4.678;2023-02-11T17:20:19;11.70;99.90
24035;DHT22;12242;50.952;4.678;2023-02-11T17:22:49;11.70;99.90
24035;DHT22;12242;50.952;4.678;2023-02-11T17:25:16;11.70;99.90
24035;DHT22;12242;50.952;4.678;2023-02-11T17:27:46;11.70;99.90
24035;DHT22;12242;50.952;4.678;2023-02-11T17:30:14;11.70;99.90
24035;DHT22;12242;50.952;4.678;2023-02-11T17:32:43;11.70;99.90
24035;DHT22;12242;50.952;4.678;2023-02-11T17:35:11;11.80;99.90
24035;DHT22;12242;50.952;4.678;2023-02-11T17:37:39;11.70;99.90
24035;DHT22;12242;50.952;4.678;2023-02-11T17:40:07;11.70;99.90
24035;DHT22;12242;50.952;4.678;2023-02-11T17:42:34;11.80;99.90
24035;DHT22;12242;50.952;4.678;2023-02-11T17:45:02;11.80;99.90
24035;DHT22;12242;50.952;4.678;2023-02-11T17:47:30;11.90;99.90
24035;DHT22;12242;50.952;4.678;2023-02-11T17:49:59;11.80;99.90
24035;DHT22;12242;50.952;4.678;2023-02-11T17:52:31;11.80;99.90
24035;DHT22;12242;50.952;4.678;2023-02-11T17:55:05;11.80;99.90
24035;DHT22;12242;50.952;4.678;2023-02-11T17:57:33;11.90;99.90
24035;DHT22;12242;50.952;4.678;2023-02-11T18:00:00;11.90;99.90
24035;DHT22;12242;50.952;4.678;2023-02-11T18:02:27;11.90;99.90
24035;DHT22;12242;50.952;4.678;2023-02-11T18:04:55;11.90;99.90
24035;DHT22;12242;50.952;4.678;2023-02-11T18:07:24;11.90;99.90
24035;DHT22;12242;50.952;4.678;2023-02-11T18:09:55;11.90;99.90
24035;DHT22;12242;50.952;4.678;2023-02-11T18:12:23;11.90;99.90
24035;DHT22;12242;50.952;4.678;2023-02-11T18:14:55;11.90;99.90
24035;DHT22;12242;50.952;4.678;2023-02-11T18:17:24;11.90;99.90
24035;DHT22;12242;50.952;4.678;2023-02-11T18:19:55;11.90;99.90
24035;DHT22;12242;50.952;4.678;2023-02-11T18:22:23;11.80;99.90
24035;DHT22;12242;50.952;4.678;2023-02-11T18:24:52;11.80;99.90
24035;DHT22;12242;50.952;4.678;2023-02-11T18:27:23;11.80;99.90
24035;DHT22;12242;50.952;4.678;2023-02-11T18:29:50;11.80;99.90
24035;DHT22;12242;50.952;4.678;2023-02-11T18:32:20;11.80;99.90
24035;DHT22;12242;50.952;4.678;2023-02-11T18:34:47;11.80;99.90
24035;DHT22;12242;50.952;4.678;2023-02-11T18:37:15;11.80;99.90
24035;DHT22;12242;50.952;4.678;2023-02-11T18:39:42;11.80;99.90
24035;DHT22;12242;50.952;4.678;2023-02-11T18:42:09;11.80;99.90
24035;DHT22;12242;50.952;4.678;2023-02-11T18:44:42;11.80;99.90
24035;DHT22;12242;50.952;4.678;2023-02-11T18:47:13;11.80;99.90
24035;DHT22;12242;50.952;4.678;2023-02-11T18:49:41;11.80;99.90
24035;DHT22;12242;50.952;4.678;2023-02-11T18:52:10;11.90;99.90
24035;DHT22;12242;50.952;4.678;2023-02-11T18:54:37;11.90;99.90